Bookmark and Share
Track history (hours):
 

Quinsam

Last reported at 2014-Apr-24 08:29 UTC. Time now 2014-Apr-24 09:22 UTC.
Position N 49°11' W 123°52'.

Length 88 m; draft 1.5 m.

Type: Ship. MMSI: 316001266.

NotesDate/timePositionNaut miles runAvg speedWind from/ knotsBaromVisibWave heightAir tempDewpointWater temp
2014-Apr-24 08:29N 49°11' W 123°52'2 1.2
2014-Apr-24 06:33N 49°10' W 123°55'1 0.5
2014-Apr-24 05:33N 49°10' W 123°56'0 0.1
2014-Apr-24 04:33N 49°10' W 123°56'2 2.1
2014-Apr-24 03:34N 49°11' W 123°53'0 0.0
2014-Apr-24 02:33N 49°11' W 123°53'1 0.8
2014-Apr-24 01:33N 49°11' W 123°52'0 0.0
2014-Apr-24 00:33N 49°11' W 123°52'2 1.7
2014-Apr-23 23:33N 49°10' W 123°54'1 1.2
2014-Apr-23 22:31N 49°10' W 123°56'0 0.3
2014-Apr-23 21:34N 49°10' W 123°55'2 2.1
2014-Apr-23 20:32N 49°11' W 123°52'0 0.5
2014-Apr-23 19:33N 49°11' W 123°52'2 1.9
2014-Apr-23 18:34N 49°10' W 123°54'1 0.9
2014-Apr-23 17:32N 49°10' W 123°56'0 0.3
2014-Apr-23 16:33N 49°10' W 123°55'3 2.5
2014-Apr-23 15:32N 49°11' W 123°52'0 0.1
2014-Apr-23 14:33N 49°11' W 123°52'1 0.6
2014-Apr-23 13:33N 49°11' W 123°52'1 0.6
2014-Apr-23 12:33N 49°10' W 123°53'1 0.2
2014-Apr-23 06:34N 49°10' W 123°55'0 0.1
2014-Apr-23 05:34N 49°10' W 123°55'1 0.6
2014-Apr-23 04:33N 49°10' W 123°54'0 0.2
2014-Apr-23 03:33N 49°10' W 123°54'0 0.4
2014-Apr-23 02:34N 49°10' W 123°55'0 0.4
2014-Apr-23 01:33N 49°10' W 123°54'2 1.6
2014-Apr-23 00:33N 49°11' W 123°52'0 0.3
2014-Apr-22 23:31N 49°11' W 123°52'3 3.0
2014-Apr-22 22:33N 49°10' W 123°56'0 0.0
2014-Apr-22 21:21N 49°10' W 123°56'1 1.5
2014-Apr-22 20:33N 49°10' W 123°54'2 1.5
2014-Apr-22 19:24N 49°11' W 123°52'2 1.9
2014-Apr-22 18:33N 49°10' W 123°54'1 1.3
2014-Apr-22 17:32N 49°10' W 123°56'0 0.3
2014-Apr-22 16:33N 49°10' W 123°55'2 2.3
2014-Apr-22 15:33N 49°11' W 123°52'0 0.3
2014-Apr-22 14:33N 49°11' W 123°52'0 0.4
2014-Apr-22 13:33N 49°11' W 123°52'1 0.9
2014-Apr-22 12:33N 49°10' W 123°53'1 1.1
2014-Apr-22 11:24N 49°11' W 123°52'0 0.0
2014-Apr-22 10:18N 49°11' W 123°52'2 0.6
2014-Apr-22 06:33N 49°10' W 123°55'0 0.2
2014-Apr-22 05:33N 49°10' W 123°55'1 0.5
2014-Apr-22 04:33N 49°10' W 123°54'1 0.6
2014-Apr-22 03:33N 49°11' W 123°53'0 0.1
2014-Apr-22 02:33N 49°11' W 123°53'1 0.9
2014-Apr-22 01:31N 49°11' W 123°52'0 0.1
2014-Apr-22 00:32N 49°11' W 123°52'1 1.2
2014-Apr-21 23:33N 49°11' W 123°53'2 1.7
2014-Apr-21 22:33N 49°10' W 123°56'1 0.6
2014-Apr-21 21:34N 49°10' W 123°55'2 2.3
2014-Apr-21 20:33N 49°11' W 123°52'0 0.1
2014-Apr-21 19:33N 49°11' W 123°52'1 1.4
2014-Apr-21 18:33N 49°10' W 123°54'1 1.5
2014-Apr-21 17:32N 49°10' W 123°56'0 0.4
2014-Apr-21 16:33N 49°10' W 123°55'2 2.0
2014-Apr-21 15:32N 49°11' W 123°52'0 0.5
2014-Apr-21 14:33N 49°11' W 123°52'0 0.5
2014-Apr-21 13:33N 49°11' W 123°52'1 0.8
2014-Apr-21 12:33N 49°10' W 123°53'1 1.1
2014-Apr-21 11:28N 49°11' W 123°52'0 0.0
2014-Apr-21 10:28N 49°11' W 123°52'2 0.6
2014-Apr-21 06:33N 49°10' W 123°55'0 0.1
2014-Apr-21 05:33N 49°10' W 123°55'0 0.3
2014-Apr-21 04:33N 49°10' W 123°54'1 0.8
2014-Apr-21 03:33N 49°11' W 123°53'0 0.2
2014-Apr-21 02:33N 49°11' W 123°53'1 0.8
2014-Apr-21 01:33N 49°11' W 123°52'0 0.1
2014-Apr-21 00:33N 49°11' W 123°52'1 0.6
2014-Apr-20 23:33N 49°11' W 123°52'2 2.3
2014-Apr-20 22:33N 49°10' W 123°56'1 0.5
2014-Apr-20 21:33N 49°10' W 123°55'2 2.3
2014-Apr-20 20:33N 49°11' W 123°52'0 0.1
2014-Apr-20 19:33N 49°11' W 123°52'2 1.8
2014-Apr-20 18:33N 49°10' W 123°54'1 1.1
2014-Apr-20 17:33N 49°10' W 123°56'0 0.0
2014-Apr-20 16:33N 49°10' W 123°56'3 2.8
2014-Apr-20 15:33N 49°11' W 123°52'0 0.2
2014-Apr-20 14:33N 49°11' W 123°52'3 2.9
2014-Apr-20 13:33N 49°10' W 123°56'2 1.7
2014-Apr-20 12:33N 49°10' W 123°53'1 0.8
2014-Apr-20 11:05N 49°11' W 123°52'0 0.0
2014-Apr-20 10:23N 49°11' W 123°52'2 0.6
2014-Apr-20 06:34N 49°10' W 123°55'0 0.2
2014-Apr-20 05:33N 49°10' W 123°55'1 0.6
2014-Apr-20 04:33N 49°10' W 123°54'0 0.3
2014-Apr-20 03:33N 49°10' W 123°54'0 0.2
2014-Apr-20 02:33N 49°11' W 123°53'1 1.1
2014-Apr-20 01:32N 49°11' W 123°52'0 0.1
2014-Apr-20 00:33N 49°11' W 123°52'1 1.5
2014-Apr-19 23:33N 49°10' W 123°54'1 1.4
2014-Apr-19 22:33N 49°10' W 123°56'0 0.5
2014-Apr-19 21:34N 49°10' W 123°55'2 2.0
2014-Apr-19 20:33N 49°11' W 123°52'0 0.5
2014-Apr-19 19:32N 49°11' W 123°52'2 2.0
2014-Apr-19 18:34N 49°10' W 123°54'1 1.0
2014-Apr-19 17:33N 49°10' W 123°56'0 0.5
2014-Apr-19 16:33N 49°10' W 123°55'2 2.1
2014-Apr-19 15:32N 49°11' W 123°52'0 0.3
2014-Apr-19 14:33N 49°11' W 123°52'0 0.2
2014-Apr-19 13:32N 49°11' W 123°52'1 1.1
2014-Apr-19 12:34N 49°10' W 123°53'1 0.2
2014-Apr-19 06:33N 49°10' W 123°56'1 0.6
2014-Apr-19 05:33N 49°10' W 123°55'1 0.5
2014-Apr-19 04:34N 49°10' W 123°54'0 0.2
2014-Apr-19 03:33N 49°10' W 123°54'0 0.3
2014-Apr-19 02:33N 49°10' W 123°53'1 1.1
2014-Apr-19 01:33N 49°11' W 123°52'0 0.0
2014-Apr-19 00:32N 49°11' W 123°52'1 1.1
2014-Apr-18 23:33N 49°10' W 123°53'2 1.8
2014-Apr-18 22:33N 49°10' W 123°56'1 0.6
2014-Apr-18 21:33N 49°10' W 123°55'2 2.0
2014-Apr-18 20:32N 49°11' W 123°52'0 0.2
2014-Apr-18 19:21N 49°11' W 123°52'1 1.9
2014-Apr-18 18:33N 49°10' W 123°54'1 1.4
2014-Apr-18 17:33N 49°10' W 123°56'0 0.4
2014-Apr-18 16:33N 49°10' W 123°55'2 1.9
2014-Apr-18 15:32N 49°11' W 123°52'1 0.6
2014-Apr-18 14:33N 49°11' W 123°52'0 0.5
2014-Apr-18 13:33N 49°11' W 123°52'1 0.8
2014-Apr-18 12:34N 49°10' W 123°53'1 0.6
2014-Apr-18 10:19N 49°11' W 123°52'0 0.0
2014-Apr-18 09:07N 49°11' W 123°52'0 0.0
2014-Apr-18 08:31N 49°11' W 123°52'3 1.5
2014-Apr-18 06:33N 49°10' W 123°56'0 0.0
2014-Apr-18 05:29N 49°10' W 123°56'0 0.0
2014-Apr-18 04:31N 49°10' W 123°56'0 0.0
2014-Apr-18 03:32N 49°10' W 123°56'1 0.9
2014-Apr-18 02:33N 49°10' W 123°55'2 1.6
2014-Apr-18 01:33N 49°11' W 123°52'1 0.5
2014-Apr-18 00:32N 49°11' W 123°52'1 0.7
2014-Apr-17 23:33N 49°11' W 123°53'2 2.2
2014-Apr-17 22:33N 49°10' W 123°56'0 0.0
2014-Apr-17 21:33N 49°10' W 123°56'2 1.9
2014-Apr-17 20:33N 49°11' W 123°53'1 1.0
2014-Apr-17 19:33N 49°11' W 123°52'1 0.6
2014-Apr-17 18:33N 49°11' W 123°52'2 2.4
2014-Apr-17 17:33N 49°10' W 123°56'0 0.0
2014-Apr-17 16:33N 49°10' W 123°56'2 2.3
2014-Apr-17 15:33N 49°11' W 123°53'1 0.6
2014-Apr-17 14:34N 49°11' W 123°52'1 0.5
2014-Apr-17 13:33N 49°11' W 123°52'1 0.8
2014-Apr-17 12:33N 49°10' W 123°53'1 0.6
2014-Apr-17 10:23N 49°11' W 123°52'0 0.0
2014-Apr-17 09:29N 49°11' W 123°52'0 0.0
2014-Apr-17 08:29N 49°11' W 123°52'3 1.5
2014-Apr-17 06:33N 49°10' W 123°56'0 0.0
2014-Apr-17 05:33N 49°10' W 123°56'0 0.0
2014-Apr-17 04:30N 49°10' W 123°56'1 1.3
2014-Apr-17 03:34N 49°10' W 123°54'1 0.6
2014-Apr-17 02:34N 49°11' W 123°53'1 0.8
2014-Apr-17 01:33N 49°11' W 123°52'0 0.2
2014-Apr-17 00:33N 49°11' W 123°52'1 1.3
2014-Apr-16 23:34N 49°10' W 123°54'2 1.6
2014-Apr-16 22:33N 49°10' W 123°56'0 0.1
2014-Apr-16 21:34N 49°10' W 123°56'2 2.1
2014-Apr-16 20:33N 49°11' W 123°53'1 0.8
2014-Apr-16 19:33N 49°11' W 123°52'2 2.1
2014-Apr-16 18:33N 49°10' W 123°55'1 0.8
2014-Apr-16 17:33N 49°10' W 123°56'0 0.0
2014-Apr-16 16:33N 49°10' W 123°56'2 2.3
2014-Apr-16 15:33N 49°11' W 123°52'1 0.6
2014-Apr-16 14:33N 49°11' W 123°52'0 0.5
2014-Apr-16 13:33N 49°11' W 123°52'1 0.8
2014-Apr-16 12:33N 49°10' W 123°53'1 0.9
2014-Apr-16 11:14N 49°11' W 123°52'0 0.0
2014-Apr-16 10:08N 49°11' W 123°52'0 0.0
2014-Apr-16 08:29N 49°11' W 123°52'0 0.0
2014-Apr-16 07:32N 49°11' W 123°52'3 2.7
2014-Apr-16 06:33N 49°10' W 123°55'0 0.0
2014-Apr-16 05:33N 49°10' W 123°55'0 0.4
2014-Apr-16 04:33N 49°10' W 123°55'1 0.7
2014-Apr-16 03:33N 49°10' W 123°54'0 0.2
2014-Apr-16 02:33N 49°10' W 123°53'1 0.9
2014-Apr-16 01:33N 49°11' W 123°52'0 0.3
2014-Apr-16 00:26N 49°11' W 123°52'1 0.9
2014-Apr-15 23:33N 49°11' W 123°53'2 2.1
2014-Apr-15 22:33N 49°10' W 123°56'0 0.2
2014-Apr-15 21:33N 49°10' W 123°55'2 2.1
2014-Apr-15 20:31N 49°11' W 123°52'0 0.4
2014-Apr-15 19:25N 49°11' W 123°52'2 1.9
2014-Apr-15 18:33N 49°10' W 123°54'1 1.2
2014-Apr-15 17:33N 49°10' W 123°56'0 0.0
2014-Apr-15 16:32N 49°10' W 123°56'2 1.6
2014-Apr-15 15:33N 49°10' W 123°54'1 1.3
2014-Apr-15 14:32N 49°11' W 123°52'1 0.3
2014-Apr-15 12:34N 49°11' W 123°52'1 0.9
2014-Apr-15 11:34N 49°10' W 123°54'1 0.2
2014-Apr-15 05:33N 49°10' W 123°56'1 0.3
2014-Apr-15 03:34N 49°10' W 123°55'0 0.1
2014-Apr-15 02:34N 49°10' W 123°55'1 0.8
2014-Apr-15 01:34N 49°10' W 123°54'1 1.0
2014-Apr-15 00:32N 49°11' W 123°52'1 0.4
2014-Apr-14 22:34N 49°10' W 123°53'2 1.7
2014-Apr-14 21:33N 49°10' W 123°56'1 0.5
2014-Apr-14 20:34N 49°10' W 123°55'2 2.1
2014-Apr-14 19:31N 49°11' W 123°52'0 0.2
2014-Apr-14 18:33N 49°11' W 123°52'2 2.0
2014-Apr-14 17:33N 49°10' W 123°55'1 0.9
2014-Apr-14 16:33N 49°10' W 123°56'0 0.3
2014-Apr-14 15:33N 49°10' W 123°55'3 1.3
2014-Apr-14 13:33N 49°11' W 123°52'1 0.7
2014-Apr-14 11:33N 49°10' W 123°54'1 0.7
2014-Apr-14 09:29N 49°11' W 123°52'0 0.0
2014-Apr-14 08:32N 49°11' W 123°52'  

Dump ship's entire track history

sailing weather and tide predictions

Quinsam — VY6800 — position and weather